sensor_id;sensor_type;location;lat;lon;timestamp;P1;durP1;ratioP1;P2;durP2;ratioP2
70920;SDS011;58572;48.110;19.838;2022-09-13T00:00:57;2.88;;;1.35;;
70920;SDS011;58572;48.110;19.838;2022-09-13T00:03:25;2.40;;;1.35;;
70920;SDS011;58572;48.110;19.838;2022-09-13T00:05:52;4.63;;;1.42;;
70920;SDS011;58572;48.110;19.838;2022-09-13T00:08:19;3.55;;;1.55;;
70920;SDS011;58572;48.110;19.838;2022-09-13T00:10:48;3.03;;;1.70;;
70920;SDS011;58572;48.110;19.838;2022-09-13T00:13:15;2.63;;;1.50;;
70920;SDS011;58572;48.110;19.838;2022-09-13T00:15:43;2.80;;;1.75;;
70920;SDS011;58572;48.110;19.838;2022-09-13T00:18:11;4.45;;;1.90;;
70920;SDS011;58572;48.110;19.838;2022-09-13T00:20:38;3.60;;;1.42;;
70920;SDS011;58572;48.110;19.838;2022-09-13T00:23:05;2.33;;;1.50;;
70920;SDS011;58572;48.110;19.838;2022-09-13T00:25:33;2.72;;;1.30;;
70920;SDS011;58572;48.110;19.838;2022-09-13T00:28:02;3.17;;;1.52;;
70920;SDS011;58572;48.110;19.838;2022-09-13T00:30:29;3.05;;;1.63;;
70920;SDS011;58572;48.110;19.838;2022-09-13T00:32:56;3.63;;;1.63;;
70920;SDS011;58572;48.110;19.838;2022-09-13T00:35:23;2.65;;;1.45;;
70920;SDS011;58572;48.110;19.838;2022-09-13T00:37:50;2.63;;;1.30;;
70920;SDS011;58572;48.110;19.838;2022-09-13T00:40:19;2.30;;;1.45;;
70920;SDS011;58572;48.110;19.838;2022-09-13T00:42:46;2.90;;;1.63;;
70920;SDS011;58572;48.110;19.838;2022-09-13T00:45:16;6.28;;;1.48;;
70920;SDS011;58572;48.110;19.838;2022-09-13T00:47:44;3.70;;;1.58;;
70920;SDS011;58572;48.110;19.838;2022-09-13T00:50:16;3.38;;;1.90;;
70920;SDS011;58572;48.110;19.838;2022-09-13T00:52:47;3.72;;;1.67;;
70920;SDS011;58572;48.110;19.838;2022-09-13T00:55:19;4.07;;;1.63;;
70920;SDS011;58572;48.110;19.838;2022-09-13T00:57:51;2.90;;;1.42;;
70920;SDS011;58572;48.110;19.838;2022-09-13T01:00:24;3.30;;;1.50;;
70920;SDS011;58572;48.110;19.838;2022-09-13T01:02:51;3.30;;;1.40;;
70920;SDS011;58572;48.110;19.838;2022-09-13T01:05:21;3.67;;;1.70;;
70920;SDS011;58572;48.110;19.838;2022-09-13T01:07:52;3.67;;;1.70;;
70920;SDS011;58572;48.110;19.838;2022-09-13T01:10:19;2.75;;;1.33;;
70920;SDS011;58572;48.110;19.838;2022-09-13T01:12:49;3.45;;;1.75;;
70920;SDS011;58572;48.110;19.838;2022-09-13T01:15:20;3.28;;;1.45;;
70920;SDS011;58572;48.110;19.838;2022-09-13T01:17:49;2.83;;;1.85;;
70920;SDS011;58572;48.110;19.838;2022-09-13T01:20:18;3.38;;;1.58;;
70920;SDS011;58572;48.110;19.838;2022-09-13T01:26:06;5.03;;;1.42;;
70920;SDS011;58572;48.110;19.838;2022-09-13T01:29:10;3.50;;;1.50;;
70920;SDS011;58572;48.110;19.838;2022-09-13T01:31:57;4.35;;;1.83;;
70920;SDS011;58572;48.110;19.838;2022-09-13T01:34:33;5.55;;;1.90;;
70920;SDS011;58572;48.110;19.838;2022-09-13T01:37:16;2.55;;;1.52;;
70920;SDS011;58572;48.110;19.838;2022-09-13T01:39:59;5.20;;;1.55;;
70920;SDS011;58572;48.110;19.838;2022-09-13T01:42:36;4.43;;;1.60;;
70920;SDS011;58572;48.110;19.838;2022-09-13T01:45:18;2.47;;;1.50;;
70920;SDS011;58572;48.110;19.838;2022-09-13T01:47:52;4.47;;;1.60;;
70920;SDS011;58572;48.110;19.838;2022-09-13T01:50:30;3.95;;;1.80;;
70920;SDS011;58572;48.110;19.838;2022-09-13T01:53:06;3.30;;;1.70;;
70920;SDS011;58572;48.110;19.838;2022-09-13T01:55:45;3.55;;;1.35;;
70920;SDS011;58572;48.110;19.838;2022-09-13T01:58:19;3.38;;;1.63;;
70920;SDS011;58572;48.110;19.838;2022-09-13T02:00:51;3.15;;;1.73;;
70920;SDS011;58572;48.110;19.838;2022-09-13T02:03:27;3.47;;;1.75;;
70920;SDS011;58572;48.110;19.838;2022-09-13T02:06:01;4.82;;;1.58;;
70920;SDS011;58572;48.110;19.838;2022-09-13T02:08:33;3.97;;;1.40;;
70920;SDS011;58572;48.110;19.838;2022-09-13T02:11:05;3.72;;;1.75;;
70920;SDS011;58572;48.110;19.838;2022-09-13T02:13:36;2.80;;;1.77;;
70920;SDS011;58572;48.110;19.838;2022-09-13T02:16:07;2.80;;;1.52;;
70920;SDS011;58572;48.110;19.838;2022-09-13T02:18:40;4.85;;;1.85;;
70920;SDS011;58572;48.110;19.838;2022-09-13T02:21:13;4.90;;;1.60;;
70920;SDS011;58572;48.110;19.838;2022-09-13T02:23:46;3.28;;;1.60;;
70920;SDS011;58572;48.110;19.838;2022-09-13T02:26:17;2.67;;;1.52;;
70920;SDS011;58572;48.110;19.838;2022-09-13T02:28:47;5.60;;;1.58;;
70920;SDS011;58572;48.110;19.838;2022-09-13T02:31:17;2.67;;;1.70;;
70920;SDS011;58572;48.110;19.838;2022-09-13T02:33:52;3.20;;;1.60;;
70920;SDS011;58572;48.110;19.838;2022-09-13T02:36:23;3.42;;;1.77;;
70920;SDS011;58572;48.110;19.838;2022-09-13T02:38:55;3.60;;;1.63;;
70920;SDS011;58572;48.110;19.838;2022-09-13T02:41:27;3.33;;;2.47;;
70920;SDS011;58572;48.110;19.838;2022-09-13T02:44:01;3.83;;;1.60;;
70920;SDS011;58572;48.110;19.838;2022-09-13T02:46:40;4.07;;;1.63;;
70920;SDS011;58572;48.110;19.838;2022-09-13T02:49:21;3.03;;;1.63;;
70920;SDS011;58572;48.110;19.838;2022-09-13T02:51:54;4.38;;;2.03;;
70920;SDS011;58572;48.110;19.838;2022-09-13T02:54:28;3.03;;;1.50;;
70920;SDS011;58572;48.110;19.838;2022-09-13T02:57:04;3.55;;;2.13;;
70920;SDS011;58572;48.110;19.838;2022-09-13T02:59:35;3.47;;;1.80;;
70920;SDS011;58572;48.110;19.838;2022-09-13T03:02:04;3.15;;;2.00;;
70920;SDS011;58572;48.110;19.838;2022-09-13T03:04:35;3.17;;;1.83;;
70920;SDS011;58572;48.110;19.838;2022-09-13T03:07:03;3.85;;;2.13;;
70920;SDS011;58572;48.110;19.838;2022-09-13T03:09:31;5.90;;;2.50;;
70920;SDS011;58572;48.110;19.838;2022-09-13T03:15:07;4.78;;;2.13;;
70920;SDS011;58572;48.110;19.838;2022-09-13T03:17:44;3.60;;;1.70;;
70920;SDS011;58572;48.110;19.838;2022-09-13T03:20:23;3.83;;;1.73;;
70920;SDS011;58572;48.110;19.838;2022-09-13T03:25:58;4.78;;;1.80;;
70920;SDS011;58572;48.110;19.838;2022-09-13T03:28:45;3.55;;;1.88;;
70920;SDS011;58572;48.110;19.838;2022-09-13T03:31:22;3.17;;;1.73;;
70920;SDS011;58572;48.110;19.838;2022-09-13T03:33:58;4.75;;;1.90;;
70920;SDS011;58572;48.110;19.838;2022-09-13T03:36:34;3.33;;;1.77;;
70920;SDS011;58572;48.110;19.838;2022-09-13T03:39:08;3.75;;;1.92;;
70920;SDS011;58572;48.110;19.838;2022-09-13T03:41:41;4.60;;;2.20;;
70920;SDS011;58572;48.110;19.838;2022-09-13T03:44:13;3.28;;;1.98;;
70920;SDS011;58572;48.110;19.838;2022-09-13T03:46:45;4.40;;;2.13;;
70920;SDS011;58572;48.110;19.838;2022-09-13T03:49:15;3.42;;;2.05;;
70920;SDS011;58572;48.110;19.838;2022-09-13T03:51:46;3.55;;;2.00;;
70920;SDS011;58572;48.110;19.838;2022-09-13T03:54:17;4.10;;;1.92;;
70920;SDS011;58572;48.110;19.838;2022-09-13T03:59:35;3.75;;;1.92;;
70920;SDS011;58572;48.110;19.838;2022-09-13T04:02:03;3.65;;;1.77;;
70920;SDS011;58572;48.110;19.838;2022-09-13T04:04:31;4.30;;;2.13;;
70920;SDS011;58572;48.110;19.838;2022-09-13T04:07:00;3.60;;;1.77;;
70920;SDS011;58572;48.110;19.838;2022-09-13T04:09:28;3.22;;;1.77;;
70920;SDS011;58572;48.110;19.838;2022-09-13T04:11:55;4.35;;;2.08;;
70920;SDS011;58572;48.110;19.838;2022-09-13T04:14:23;2.92;;;1.88;;
70920;SDS011;58572;48.110;19.838;2022-09-13T04:16:52;4.60;;;2.22;;
70920;SDS011;58572;48.110;19.838;2022-09-13T04:19:19;4.63;;;1.85;;
70920;SDS011;58572;48.110;19.838;2022-09-13T04:21:47;4.18;;;1.80;;
70920;SDS011;58572;48.110;19.838;2022-09-13T04:24:16;4.35;;;1.92;;
70920;SDS011;58572;48.110;19.838;2022-09-13T04:26:47;4.30;;;2.15;;
70920;SDS011;58572;48.110;19.838;2022-09-13T04:29:15;4.55;;;1.63;;
70920;SDS011;58572;48.110;19.838;2022-09-13T04:31:42;3.95;;;1.85;;
70920;SDS011;58572;48.110;19.838;2022-09-13T04:34:09;3.35;;;1.90;;
70920;SDS011;58572;48.110;19.838;2022-09-13T04:36:37;3.58;;;2.13;;
70920;SDS011;58572;48.110;19.838;2022-09-13T04:39:04;4.00;;;2.33;;
70920;SDS011;58572;48.110;19.838;2022-09-13T04:41:33;4.75;;;1.90;;
70920;SDS011;58572;48.110;19.838;2022-09-13T04:44:00;3.35;;;1.88;;
70920;SDS011;58572;48.110;19.838;2022-09-13T04:48:54;4.70;;;1.73;;
70920;SDS011;58572;48.110;19.838;2022-09-13T04:51:22;4.88;;;1.98;;
70920;SDS011;58572;48.110;19.838;2022-09-13T04:53:50;3.92;;;1.90;;
70920;SDS011;58572;48.110;19.838;2022-09-13T04:56:19;4.03;;;2.38;;
70920;SDS011;58572;48.110;19.838;2022-09-13T04:58:49;4.78;;;1.63;;
70920;SDS011;58572;48.110;19.838;2022-09-13T05:01:16;3.53;;;1.73;;
70920;SDS011;58572;48.110;19.838;2022-09-13T05:03:43;3.97;;;2.03;;
70920;SDS011;58572;48.110;19.838;2022-09-13T05:06:11;3.30;;;2.13;;
70920;SDS011;58572;48.110;19.838;2022-09-13T05:08:39;3.75;;;1.98;;
70920;SDS011;58572;48.110;19.838;2022-09-13T05:11:06;3.92;;;1.92;;
70920;SDS011;58572;48.110;19.838;2022-09-13T05:13:33;3.38;;;1.70;;
70920;SDS011;58572;48.110;19.838;2022-09-13T05:16:03;4.35;;;1.98;;
70920;SDS011;58572;48.110;19.838;2022-09-13T05:18:33;4.25;;;1.83;;
70920;SDS011;58572;48.110;19.838;2022-09-13T05:21:01;3.17;;;2.10;;
70920;SDS011;58572;48.110;19.838;2022-09-13T05:23:30;3.13;;;1.90;;
70920;SDS011;58572;48.110;19.838;2022-09-13T05:28:25;3.80;;;1.92;;
70920;SDS011;58572;48.110;19.838;2022-09-13T05:30:54;4.57;;;2.17;;
70920;SDS011;58572;48.110;19.838;2022-09-13T05:33:24;3.88;;;2.05;;
70920;SDS011;58572;48.110;19.838;2022-09-13T05:35:51;3.95;;;2.08;;
70920;SDS011;58572;48.110;19.838;2022-09-13T05:38:19;3.38;;;1.70;;
70920;SDS011;58572;48.110;19.838;2022-09-13T05:43:13;3.10;;;1.58;;
70920;SDS011;58572;48.110;19.838;2022-09-13T05:45:40;3.50;;;2.10;;
70920;SDS011;58572;48.110;19.838;2022-09-13T05:48:08;4.18;;;2.03;;
70920;SDS011;58572;48.110;19.838;2022-09-13T05:50:39;4.30;;;2.33;;
70920;SDS011;58572;48.110;19.838;2022-09-13T05:53:06;4.20;;;1.95;;
70920;SDS011;58572;48.110;19.838;2022-09-13T05:55:33;3.78;;;2.47;;
70920;SDS011;58572;48.110;19.838;2022-09-13T05:58:01;3.55;;;2.03;;
70920;SDS011;58572;48.110;19.838;2022-09-13T06:00:28;4.78;;;2.33;;
70920;SDS011;58572;48.110;19.838;2022-09-13T06:02:56;3.70;;;1.92;;
70920;SDS011;58572;48.110;19.838;2022-09-13T06:05:23;3.95;;;1.98;;
70920;SDS011;58572;48.110;19.838;2022-09-13T06:07:52;3.35;;;1.95;;
70920;SDS011;58572;48.110;19.838;2022-09-13T06:10:19;3.53;;;2.15;;
70920;SDS011;58572;48.110;19.838;2022-09-13T06:12:49;4.13;;;1.98;;
70920;SDS011;58572;48.110;19.838;2022-09-13T06:15:16;3.60;;;2.17;;
70920;SDS011;58572;48.110;19.838;2022-09-13T06:17:43;3.85;;;1.98;;
70920;SDS011;58572;48.110;19.838;2022-09-13T06:20:11;3.63;;;2.10;;
70920;SDS011;58572;48.110;19.838;2022-09-13T06:22:39;3.28;;;1.98;;
70920;SDS011;58572;48.110;19.838;2022-09-13T06:25:08;3.88;;;2.05;;
70920;SDS011;58572;48.110;19.838;2022-09-13T06:27:35;4.70;;;2.13;;
70920;SDS011;58572;48.110;19.838;2022-09-13T06:30:03;4.82;;;2.78;;
70920;SDS011;58572;48.110;19.838;2022-09-13T06:32:33;3.10;;;2.05;;
70920;SDS011;58572;48.110;19.838;2022-09-13T06:35:00;5.05;;;2.50;;
70920;SDS011;58572;48.110;19.838;2022-09-13T06:37:27;4.85;;;2.38;;
70920;SDS011;58572;48.110;19.838;2022-09-13T06:39:54;3.30;;;2.00;;
70920;SDS011;58572;48.110;19.838;2022-09-13T06:42:23;4.88;;;2.25;;
70920;SDS011;58572;48.110;19.838;2022-09-13T06:44:51;4.38;;;2.50;;
70920;SDS011;58572;48.110;19.838;2022-09-13T06:47:18;4.93;;;2.25;;
70920;SDS011;58572;48.110;19.838;2022-09-13T06:49:45;6.20;;;2.42;;
70920;SDS011;58572;48.110;19.838;2022-09-13T06:52:12;4.60;;;2.40;;
70920;SDS011;58572;48.110;19.838;2022-09-13T06:54:39;6.70;;;2.38;;
70920;SDS011;58572;48.110;19.838;2022-09-13T06:57:06;5.75;;;2.63;;
70920;SDS011;58572;48.110;19.838;2022-09-13T06:59:35;3.88;;;2.20;;
70920;SDS011;58572;48.110;19.838;2022-09-13T07:02:02;4.18;;;2.10;;
70920;SDS011;58572;48.110;19.838;2022-09-13T07:04:29;4.03;;;2.50;;
70920;SDS011;58572;48.110;19.838;2022-09-13T07:06:57;4.07;;;2.70;;
70920;SDS011;58572;48.110;19.838;2022-09-13T07:09:24;3.42;;;2.10;;
70920;SDS011;58572;48.110;19.838;2022-09-13T07:11:52;3.55;;;2.08;;
70920;SDS011;58572;48.110;19.838;2022-09-13T07:14:21;3.83;;;2.22;;
70920;SDS011;58572;48.110;19.838;2022-09-13T07:16:51;3.72;;;2.22;;
70920;SDS011;58572;48.110;19.838;2022-09-13T07:19:19;4.30;;;2.08;;
70920;SDS011;58572;48.110;19.838;2022-09-13T07:21:48;3.30;;;2.15;;
70920;SDS011;58572;48.110;19.838;2022-09-13T07:24:16;3.67;;;2.25;;
70920;SDS011;58572;48.110;19.838;2022-09-13T07:26:44;3.75;;;2.05;;
70920;SDS011;58572;48.110;19.838;2022-09-13T07:29:12;4.88;;;2.13;;
70920;SDS011;58572;48.110;19.838;2022-09-13T07:31:41;4.25;;;2.03;;
70920;SDS011;58572;48.110;19.838;2022-09-13T07:34:12;3.08;;;1.75;;
70920;SDS011;58572;48.110;19.838;2022-09-13T07:36:40;3.90;;;2.42;;
70920;SDS011;58572;48.110;19.838;2022-09-13T07:39:09;5.07;;;2.15;;
70920;SDS011;58572;48.110;19.838;2022-09-13T07:41:36;3.67;;;2.25;;
70920;SDS011;58572;48.110;19.838;2022-09-13T07:44:03;3.60;;;2.10;;
70920;SDS011;58572;48.110;19.838;2022-09-13T07:46:32;4.68;;;2.13;;
70920;SDS011;58572;48.110;19.838;2022-09-13T07:49:08;3.97;;;1.70;;
70920;SDS011;58572;48.110;19.838;2022-09-13T07:51:38;3.72;;;2.20;;
70920;SDS011;58572;48.110;19.838;2022-09-13T07:54:08;3.40;;;1.98;;
70920;SDS011;58572;48.110;19.838;2022-09-13T07:56:37;3.50;;;2.00;;
70920;SDS011;58572;48.110;19.838;2022-09-13T07:59:07;3.80;;;1.80;;
70920;SDS011;58572;48.110;19.838;2022-09-13T08:01:38;4.45;;;1.92;;
70920;SDS011;58572;48.110;19.838;2022-09-13T08:04:07;3.63;;;1.90;;
70920;SDS011;58572;48.110;19.838;2022-09-13T08:06:38;4.28;;;1.65;;
70920;SDS011;58572;48.110;19.838;2022-09-13T08:09:07;3.15;;;1.92;;
70920;SDS011;58572;48.110;19.838;2022-09-13T08:11:36;4.05;;;2.03;;
70920;SDS011;58572;48.110;19.838;2022-09-13T08:14:05;3.00;;;1.50;;
70920;SDS011;58572;48.110;19.838;2022-09-13T08:16:33;3.50;;;2.03;;
70920;SDS011;58572;48.110;19.838;2022-09-13T08:19:02;3.25;;;1.65;;
70920;SDS011;58572;48.110;19.838;2022-09-13T08:21:31;2.83;;;1.70;;
70920;SDS011;58572;48.110;19.838;2022-09-13T08:24:01;4.38;;;1.70;;
70920;SDS011;58572;48.110;19.838;2022-09-13T08:26:29;3.28;;;1.83;;
70920;SDS011;58572;48.110;19.838;2022-09-13T08:28:58;2.72;;;1.60;;
70920;SDS011;58572;48.110;19.838;2022-09-13T08:31:27;3.40;;;1.70;;
70920;SDS011;58572;48.110;19.838;2022-09-13T08:36:22;3.15;;;1.70;;
70920;SDS011;58572;48.110;19.838;2022-09-13T08:38:50;3.50;;;1.88;;
70920;SDS011;58572;48.110;19.838;2022-09-13T08:41:24;2.80;;;1.40;;
70920;SDS011;58572;48.110;19.838;2022-09-13T08:44:02;2.75;;;1.63;;
70920;SDS011;58572;48.110;19.838;2022-09-13T08:46:35;3.70;;;1.70;;
70920;SDS011;58572;48.110;19.838;2022-09-13T08:49:06;3.75;;;1.75;;
70920;SDS011;58572;48.110;19.838;2022-09-13T08:51:40;2.67;;;1.40;;
70920;SDS011;58572;48.110;19.838;2022-09-13T08:54:11;2.53;;;1.27;;
70920;SDS011;58572;48.110;19.838;2022-09-13T08:56:43;4.57;;;1.63;;
70920;SDS011;58572;48.110;19.838;2022-09-13T08:59:28;3.00;;;1.67;;
70920;SDS011;58572;48.110;19.838;2022-09-13T09:02:10;3.20;;;1.52;;
70920;SDS011;58572;48.110;19.838;2022-09-13T09:04:51;2.85;;;1.40;;
70920;SDS011;58572;48.110;19.838;2022-09-13T09:07:27;4.10;;;1.63;;
70920;SDS011;58572;48.110;19.838;2022-09-13T09:09:58;2.80;;;1.40;;
70920;SDS011;58572;48.110;19.838;2022-09-13T09:12:34;4.47;;;1.60;;
70920;SDS011;58572;48.110;19.838;2022-09-13T09:15:08;3.03;;;1.35;;
70920;SDS011;58572;48.110;19.838;2022-09-13T09:20:26;2.72;;;1.60;;
70920;SDS011;58572;48.110;19.838;2022-09-13T09:22:58;3.00;;;1.17;;
70920;SDS011;58572;48.110;19.838;2022-09-13T09:25:31;2.63;;;1.33;;
70920;SDS011;58572;48.110;19.838;2022-09-13T09:28:05;2.70;;;1.35;;
70920;SDS011;58572;48.110;19.838;2022-09-13T09:30:38;2.63;;;1.52;;
70920;SDS011;58572;48.110;19.838;2022-09-13T09:33:21;4.57;;;1.20;;
70920;SDS011;58572;48.110;19.838;2022-09-13T09:35:59;3.15;;;1.15;;
70920;SDS011;58572;48.110;19.838;2022-09-13T09:38:32;2.85;;;1.50;;
70920;SDS011;58572;48.110;19.838;2022-09-13T09:41:04;2.72;;;1.27;;
70920;SDS011;58572;48.110;19.838;2022-09-13T09:43:40;2.53;;;1.13;;
70920;SDS011;58572;48.110;19.838;2022-09-13T09:46:13;2.28;;;1.17;;
70920;SDS011;58572;48.110;19.838;2022-09-13T09:48:44;2.90;;;1.25;;
70920;SDS011;58572;48.110;19.838;2022-09-13T09:51:16;2.38;;;1.20;;
70920;SDS011;58572;48.110;19.838;2022-09-13T09:53:47;2.70;;;1.25;;
70920;SDS011;58572;48.110;19.838;2022-09-13T09:56:22;3.53;;;1.40;;
70920;SDS011;58572;48.110;19.838;2022-09-13T09:58:52;2.58;;;1.30;;
70920;SDS011;58572;48.110;19.838;2022-09-13T10:01:23;5.40;;;1.40;;
70920;SDS011;58572;48.110;19.838;2022-09-13T10:06:46;3.70;;;1.63;;
70920;SDS011;58572;48.110;19.838;2022-09-13T10:09:16;2.75;;;1.40;;
70920;SDS011;58572;48.110;19.838;2022-09-13T10:11:46;3.05;;;1.23;;
70920;SDS011;58572;48.110;19.838;2022-09-13T10:14:30;2.00;;;1.00;;
70920;SDS011;58572;48.110;19.838;2022-09-13T10:17:03;2.20;;;1.02;;
70920;SDS011;58572;48.110;19.838;2022-09-13T10:19:32;2.10;;;1.02;;
70920;SDS011;58572;48.110;19.838;2022-09-13T10:22:01;1.60;;;0.80;;
70920;SDS011;58572;48.110;19.838;2022-09-13T10:24:30;3.50;;;1.10;;
70920;SDS011;58572;48.110;19.838;2022-09-13T10:26:58;2.10;;;0.95;;
70920;SDS011;58572;48.110;19.838;2022-09-13T10:29:25;2.78;;;1.00;;
70920;SDS011;58572;48.110;19.838;2022-09-13T10:31:55;1.70;;;0.82;;
70920;SDS011;58572;48.110;19.838;2022-09-13T10:34:26;2.20;;;1.00;;
70920;SDS011;58572;48.110;19.838;2022-09-13T10:36:57;3.72;;;1.27;;
70920;SDS011;58572;48.110;19.838;2022-09-13T10:39:28;2.08;;;0.98;;
70920;SDS011;58572;48.110;19.838;2022-09-13T10:41:58;3.38;;;1.02;;
70920;SDS011;58572;48.110;19.838;2022-09-13T10:44:29;1.33;;;0.63;;
70920;SDS011;58572;48.110;19.838;2022-09-13T10:47:05;2.33;;;0.93;;
70920;SDS011;58572;48.110;19.838;2022-09-13T10:49:38;2.53;;;0.90;;
70920;SDS011;58572;48.110;19.838;2022-09-13T10:52:21;4.25;;;1.30;;
70920;SDS011;58572;48.110;19.838;2022-09-13T10:54:53;1.50;;;0.75;;
70920;SDS011;58572;48.110;19.838;2022-09-13T10:57:33;2.35;;;0.90;;
70920;SDS011;58572;48.110;19.838;2022-09-13T11:00:04;2.38;;;1.08;;
70920;SDS011;58572;48.110;19.838;2022-09-13T11:05:32;2.92;;;0.93;;
70920;SDS011;58572;48.110;19.838;2022-09-13T11:08:10;2.10;;;0.90;;
70920;SDS011;58572;48.110;19.838;2022-09-13T11:10:57;2.97;;;0.80;;
70920;SDS011;58572;48.110;19.838;2022-09-13T11:13:37;2.50;;;0.90;;
70920;SDS011;58572;48.110;19.838;2022-09-13T11:16:22;2.42;;;0.90;;
70920;SDS011;58572;48.110;19.838;2022-09-13T11:22:13;2.40;;;0.70;;
70920;SDS011;58572;48.110;19.838;2022-09-13T11:25:01;4.13;;;0.90;;
70920;SDS011;58572;48.110;19.838;2022-09-13T11:27:37;1.63;;;0.88;;
70920;SDS011;58572;48.110;19.838;2022-09-13T11:30:13;3.03;;;1.02;;
70920;SDS011;58572;48.110;19.838;2022-09-13T11:35:51;3.47;;;0.80;;
70920;SDS011;58572;48.110;19.838;2022-09-13T11:38:35;2.88;;;0.77;;
70920;SDS011;58572;48.110;19.838;2022-09-13T11:41:14;1.65;;;0.65;;
70920;SDS011;58572;48.110;19.838;2022-09-13T11:44:07;2.13;;;0.90;;
70920;SDS011;58572;48.110;19.838;2022-09-13T11:46:49;2.00;;;1.00;;
70920;SDS011;58572;48.110;19.838;2022-09-13T11:49:33;2.28;;;0.80;;
70920;SDS011;58572;48.110;19.838;2022-09-13T11:52:17;1.95;;;0.88;;
70920;SDS011;58572;48.110;19.838;2022-09-13T11:54:58;1.70;;;0.82;;
70920;SDS011;58572;48.110;19.838;2022-09-13T11:57:37;1.58;;;0.70;;
70920;SDS011;58572;48.110;19.838;2022-09-13T12:00:13;2.15;;;0.80;;
70920;SDS011;58572;48.110;19.838;2022-09-13T12:02:46;1.58;;;0.80;;
70920;SDS011;58572;48.110;19.838;2022-09-13T12:05:22;2.10;;;0.82;;
70920;SDS011;58572;48.110;19.838;2022-09-13T12:07:55;2.17;;;0.88;;
70920;SDS011;58572;48.110;19.838;2022-09-13T12:10:27;1.42;;;0.68;;
70920;SDS011;58572;48.110;19.838;2022-09-13T12:13:00;3.95;;;0.68;;
70920;SDS011;58572;48.110;19.838;2022-09-13T12:15:32;1.13;;;0.60;;
70920;SDS011;58572;48.110;19.838;2022-09-13T12:20:32;1.42;;;0.60;;
70920;SDS011;58572;48.110;19.838;2022-09-13T12:23:06;1.77;;;0.85;;
70920;SDS011;58572;48.110;19.838;2022-09-13T12:25:41;2.28;;;0.70;;
70920;SDS011;58572;48.110;19.838;2022-09-13T12:28:15;1.83;;;0.70;;
70920;SDS011;58572;48.110;19.838;2022-09-13T12:30:51;2.10;;;0.70;;
70920;SDS011;58572;48.110;19.838;2022-09-13T12:33:21;1.73;;;0.88;;
70920;SDS011;58572;48.110;19.838;2022-09-13T12:35:55;1.92;;;0.90;;
70920;SDS011;58572;48.110;19.838;2022-09-13T12:38:51;1.83;;;0.90;;
70920;SDS011;58572;48.110;19.838;2022-09-13T12:41:35;2.13;;;0.93;;
70920;SDS011;58572;48.110;19.838;2022-09-13T12:44:24;1.95;;;0.90;;
70920;SDS011;58572;48.110;19.838;2022-09-13T12:47:15;2.10;;;0.95;;
70920;SDS011;58572;48.110;19.838;2022-09-13T12:50:10;2.92;;;0.95;;
70920;SDS011;58572;48.110;19.838;2022-09-13T12:52:57;1.75;;;0.80;;
70920;SDS011;58572;48.110;19.838;2022-09-13T12:55:37;1.85;;;0.85;;
70920;SDS011;58572;48.110;19.838;2022-09-13T12:58:32;1.88;;;0.70;;
70920;SDS011;58572;48.110;19.838;2022-09-13T13:01:13;4.50;;;0.90;;
70920;SDS011;58572;48.110;19.838;2022-09-13T13:03:44;1.77;;;0.77;;
70920;SDS011;58572;48.110;19.838;2022-09-13T13:06:20;2.20;;;0.82;;
70920;SDS011;58572;48.110;19.838;2022-09-13T13:08:54;2.40;;;0.90;;
70920;SDS011;58572;48.110;19.838;2022-09-13T13:11:25;3.10;;;0.80;;
70920;SDS011;58572;48.110;19.838;2022-09-13T13:13:56;1.55;;;0.73;;
70920;SDS011;58572;48.110;19.838;2022-09-13T13:16:27;1.58;;;0.80;;
70920;SDS011;58572;48.110;19.838;2022-09-13T13:18:57;3.53;;;1.00;;
70920;SDS011;58572;48.110;19.838;2022-09-13T13:21:29;2.00;;;0.90;;
70920;SDS011;58572;48.110;19.838;2022-09-13T13:27:19;2.00;;;1.00;;
70920;SDS011;58572;48.110;19.838;2022-09-13T13:33:05;1.60;;;0.60;;
70920;SDS011;58572;48.110;19.838;2022-09-13T13:35:38;1.83;;;0.80;;
70920;SDS011;58572;48.110;19.838;2022-09-13T13:40:40;1.70;;;0.63;;
70920;SDS011;58572;48.110;19.838;2022-09-13T13:45:57;1.75;;;0.82;;
70920;SDS011;58572;48.110;19.838;2022-09-13T13:48:40;1.40;;;0.70;;
70920;SDS011;58572;48.110;19.838;2022-09-13T13:51:12;1.52;;;0.70;;
70920;SDS011;58572;48.110;19.838;2022-09-13T13:53:59;1.92;;;0.90;;
70920;SDS011;58572;48.110;19.838;2022-09-13T13:56:33;3.15;;;0.90;;
70920;SDS011;58572;48.110;19.838;2022-09-13T13:59:13;3.08;;;0.70;;
70920;SDS011;58572;48.110;19.838;2022-09-13T14:01:48;1.90;;;0.80;;
70920;SDS011;58572;48.110;19.838;2022-09-13T14:07:34;1.75;;;0.73;;
70920;SDS011;58572;48.110;19.838;2022-09-13T14:10:17;1.90;;;0.77;;
70920;SDS011;58572;48.110;19.838;2022-09-13T14:13:01;1.63;;;0.85;;
70920;SDS011;58572;48.110;19.838;2022-09-13T14:15:48;1.85;;;0.82;;
70920;SDS011;58572;48.110;19.838;2022-09-13T14:23:47;2.90;;;0.93;;
70920;SDS011;58572;48.110;19.838;2022-09-13T14:26:14;1.77;;;0.82;;
70920;SDS011;58572;48.110;19.838;2022-09-13T14:28:41;1.73;;;0.80;;
70920;SDS011;58572;48.110;19.838;2022-09-13T14:31:15;1.92;;;0.93;;
70920;SDS011;58572;48.110;19.838;2022-09-13T14:33:45;4.93;;;0.80;;
70920;SDS011;58572;48.110;19.838;2022-09-13T14:36:16;1.92;;;0.80;;
70920;SDS011;58572;48.110;19.838;2022-09-13T14:38:48;2.38;;;0.90;;
70920;SDS011;58572;48.110;19.838;2022-09-13T14:41:17;1.65;;;0.90;;
70920;SDS011;58572;48.110;19.838;2022-09-13T14:43:46;1.40;;;0.70;;
70920;SDS011;58572;48.110;19.838;2022-09-13T14:46:17;1.90;;;1.08;;
70920;SDS011;58572;48.110;19.838;2022-09-13T14:48:50;1.65;;;0.90;;
70920;SDS011;58572;48.110;19.838;2022-09-13T14:51:22;2.30;;;0.93;;
70920;SDS011;58572;48.110;19.838;2022-09-13T14:53:52;2.25;;;1.00;;
70920;SDS011;58572;48.110;19.838;2022-09-13T14:56:27;2.97;;;1.13;;
70920;SDS011;58572;48.110;19.838;2022-09-13T14:59:00;2.53;;;1.10;;
70920;SDS011;58572;48.110;19.838;2022-09-13T15:01:34;3.65;;;0.93;;
70920;SDS011;58572;48.110;19.838;2022-09-13T15:04:02;2.22;;;1.05;;
70920;SDS011;58572;48.110;19.838;2022-09-13T15:06:31;2.30;;;1.10;;
70920;SDS011;58572;48.110;19.838;2022-09-13T15:09:12;4.93;;;1.10;;
70920;SDS011;58572;48.110;19.838;2022-09-13T15:11:53;2.60;;;1.20;;
70920;SDS011;58572;48.110;19.838;2022-09-13T15:14:24;1.85;;;0.90;;
70920;SDS011;58572;48.110;19.838;2022-09-13T15:16:56;2.70;;;1.10;;
70920;SDS011;58572;48.110;19.838;2022-09-13T15:19:27;2.42;;;1.08;;
70920;SDS011;58572;48.110;19.838;2022-09-13T15:22:10;3.42;;;1.05;;
70920;SDS011;58572;48.110;19.838;2022-09-13T15:24:44;2.00;;;1.00;;
70920;SDS011;58572;48.110;19.838;2022-09-13T15:27:17;2.65;;;1.23;;
70920;SDS011;58572;48.110;19.838;2022-09-13T15:29:47;2.40;;;1.20;;
70920;SDS011;58572;48.110;19.838;2022-09-13T15:32:20;2.20;;;1.15;;
70920;SDS011;58572;48.110;19.838;2022-09-13T15:34:49;2.72;;;1.17;;
70920;SDS011;58572;48.110;19.838;2022-09-13T15:37:17;3.65;;;1.30;;
70920;SDS011;58572;48.110;19.838;2022-09-13T15:40:01;4.18;;;1.20;;
70920;SDS011;58572;48.110;19.838;2022-09-13T15:42:43;3.22;;;1.20;;
70920;SDS011;58572;48.110;19.838;2022-09-13T15:45:11;1.95;;;0.98;;
70920;SDS011;58572;48.110;19.838;2022-09-13T15:47:40;2.28;;;1.10;;
70920;SDS011;58572;48.110;19.838;2022-09-13T15:50:17;2.13;;;1.05;;
70920;SDS011;58572;48.110;19.838;2022-09-13T15:52:45;2.47;;;1.30;;
70920;SDS011;58572;48.110;19.838;2022-09-13T15:55:12;2.42;;;1.13;;
70920;SDS011;58572;48.110;19.838;2022-09-13T16:00:10;2.30;;;1.00;;
70920;SDS011;58572;48.110;19.838;2022-09-13T16:02:43;2.70;;;1.23;;
70920;SDS011;58572;48.110;19.838;2022-09-13T16:05:10;3.17;;;1.13;;